sensor_id;sensor_type;location;lat;lon;timestamp;pressure;altitude;pressure_sealevel;temperature;humidity
34925;BME280;21130;51.728;8.748;2024-03-06T00:02:22;100615.75;;;5.23;100.00
34925;BME280;21130;51.728;8.748;2024-03-06T00:04:48;100618.50;;;5.23;100.00
34925;BME280;21130;51.728;8.748;2024-03-06T00:07:16;100624.00;;;5.23;100.00
34925;BME280;21130;51.728;8.748;2024-03-06T00:09:42;100627.41;;;5.25;100.00
34925;BME280;21130;51.728;8.748;2024-03-06T00:12:09;100621.44;;;5.22;100.00
34925;BME280;21130;51.728;8.748;2024-03-06T00:14:36;100628.22;;;5.19;100.00
34925;BME280;21130;51.728;8.748;2024-03-06T00:17:03;100636.47;;;5.19;100.00
34925;BME280;21130;51.728;8.748;2024-03-06T00:19:30;100630.75;;;5.14;100.00
34925;BME280;21130;51.728;8.748;2024-03-06T00:21:56;100633.69;;;5.06;100.00
34925;BME280;21130;51.728;8.748;2024-03-06T00:24:25;100639.84;;;5.08;100.00
34925;BME280;21130;51.728;8.748;2024-03-06T00:26:52;100641.97;;;5.12;100.00
34925;BME280;21130;51.728;8.748;2024-03-06T00:29:19;100637.97;;;5.15;100.00
34925;BME280;21130;51.728;8.748;2024-03-06T00:31:46;100648.53;;;5.18;100.00
34925;BME280;21130;51.728;8.748;2024-03-06T00:34:14;100649.16;;;5.07;100.00
34925;BME280;21130;51.728;8.748;2024-03-06T00:36:41;100654.88;;;5.12;100.00
34925;BME280;21130;51.728;8.748;2024-03-06T00:39:07;100645.13;;;5.09;100.00
34925;BME280;21130;51.728;8.748;2024-03-06T00:41:35;100654.66;;;5.13;100.00
34925;BME280;21130;51.728;8.748;2024-03-06T00:44:02;100655.72;;;5.12;100.00
34925;BME280;21130;51.728;8.748;2024-03-06T00:46:29;100654.69;;;5.20;100.00
34925;BME280;21130;51.728;8.748;2024-03-06T00:48:55;100651.91;;;5.13;100.00
34925;BME280;21130;51.728;8.748;2024-03-06T00:51:22;100655.97;;;5.17;100.00
34925;BME280;21130;51.728;8.748;2024-03-06T00:53:48;100658.91;;;5.16;100.00
34925;BME280;21130;51.728;8.748;2024-03-06T00:56:18;100665.88;;;5.12;100.00
34925;BME280;21130;51.728;8.748;2024-03-06T00:58:45;100649.19;;;5.20;100.00
34925;BME280;21130;51.728;8.748;2024-03-06T01:01:12;100652.19;;;5.25;100.00
34925;BME280;21130;51.728;8.748;2024-03-06T01:03:38;100663.38;;;5.17;100.00
34925;BME280;21130;51.728;8.748;2024-03-06T01:06:05;100655.97;;;5.17;100.00
34925;BME280;21130;51.728;8.748;2024-03-06T01:08:31;100661.06;;;5.27;100.00
34925;BME280;21130;51.728;8.748;2024-03-06T01:10:58;100664.00;;;5.19;100.00
34925;BME280;21130;51.728;8.748;2024-03-06T01:13:24;100670.97;;;5.22;100.00
34925;BME280;21130;51.728;8.748;2024-03-06T01:15:52;100670.97;;;5.15;100.00
34925;BME280;21130;51.728;8.748;2024-03-06T01:18:21;100671.38;;;5.12;100.00
34925;BME280;21130;51.728;8.748;2024-03-06T01:20:48;100672.88;;;5.14;100.00
34925;BME280;21130;51.728;8.748;2024-03-06T01:23:14;100672.00;;;5.14;100.00
34925;BME280;21130;51.728;8.748;2024-03-06T01:25:42;100680.50;;;5.19;100.00
34925;BME280;21130;51.728;8.748;2024-03-06T01:28:08;100672.50;;;5.24;100.00
34925;BME280;21130;51.728;8.748;2024-03-06T01:30:34;100676.06;;;5.18;100.00
34925;BME280;21130;51.728;8.748;2024-03-06T01:33:02;100669.94;;;5.23;100.00
34925;BME280;21130;51.728;8.748;2024-03-06T01:35:30;100672.09;;;5.27;100.00
34925;BME280;21130;51.728;8.748;2024-03-06T01:37:57;100676.94;;;5.25;100.00
34925;BME280;21130;51.728;8.748;2024-03-06T01:40:23;100667.84;;;5.25;100.00
34925;BME280;21130;51.728;8.748;2024-03-06T01:42:49;100679.69;;;5.25;100.00
34925;BME280;21130;51.728;8.748;2024-03-06T01:45:16;100677.59;;;5.34;100.00
34925;BME280;21130;51.728;8.748;2024-03-06T01:47:43;100689.84;;;5.31;100.00
34925;BME280;21130;51.728;8.748;2024-03-06T01:50:10;100683.97;;;5.34;100.00
34925;BME280;21130;51.728;8.748;2024-03-06T01:52:38;100689.03;;;5.31;100.00
34925;BME280;21130;51.728;8.748;2024-03-06T01:55:07;100684.81;;;5.35;100.00
34925;BME280;21130;51.728;8.748;2024-03-06T01:57:34;100696.19;;;5.25;100.00
34925;BME280;21130;51.728;8.748;2024-03-06T02:00:01;100690.69;;;5.25;100.00
34925;BME280;21130;51.728;8.748;2024-03-06T02:02:28;100694.09;;;5.27;100.00
34925;BME280;21130;51.728;8.748;2024-03-06T02:04:55;100694.28;;;5.26;100.00
34925;BME280;21130;51.728;8.748;2024-03-06T02:07:24;100692.38;;;5.26;100.00
34925;BME280;21130;51.728;8.748;2024-03-06T02:09:50;100700.22;;;5.23;100.00
34925;BME280;21130;51.728;8.748;2024-03-06T02:12:17;100698.72;;;5.20;100.00
34925;BME280;21130;51.728;8.748;2024-03-06T02:14:43;100701.88;;;5.17;100.00
34925;BME280;21130;51.728;8.748;2024-03-06T02:17:10;100709.72;;;5.20;100.00
34925;BME280;21130;51.728;8.748;2024-03-06T02:19:38;100705.09;;;5.27;100.00
34925;BME280;21130;51.728;8.748;2024-03-06T02:22:10;100708.88;;;5.26;100.00
34925;BME280;21130;51.728;8.748;2024-03-06T02:24:37;100708.88;;;5.26;100.00
34925;BME280;21130;51.728;8.748;2024-03-06T02:27:04;100701.31;;;5.35;100.00
34925;BME280;21130;51.728;8.748;2024-03-06T02:29:31;100703.00;;;5.29;100.00
34925;BME280;21130;51.728;8.748;2024-03-06T02:31:58;100710.16;;;5.24;100.00
34925;BME280;21130;51.728;8.748;2024-03-06T02:34:26;100711.88;;;5.25;100.00
34925;BME280;21130;51.728;8.748;2024-03-06T02:36:54;100719.72;;;5.28;100.00
34925;BME280;21130;51.728;8.748;2024-03-06T02:39:21;100718.88;;;5.27;100.00
34925;BME280;21130;51.728;8.748;2024-03-06T02:41:48;100716.53;;;5.31;100.00
34925;BME280;21130;51.728;8.748;2024-03-06T02:44:15;100716.97;;;5.28;100.00
34925;BME280;21130;51.728;8.748;2024-03-06T02:46:46;100716.13;;;5.34;100.00
34925;BME280;21130;51.728;8.748;2024-03-06T02:49:13;100716.16;;;5.40;100.00
34925;BME280;21130;51.728;8.748;2024-03-06T02:51:40;100719.50;;;5.29;100.00
34925;BME280;21130;51.728;8.748;2024-03-06T02:54:06;100719.47;;;5.23;100.00
34925;BME280;21130;51.728;8.748;2024-03-06T02:56:34;100719.88;;;5.19;100.00
34925;BME280;21130;51.728;8.748;2024-03-06T02:59:03;100720.28;;;5.16;100.00
34925;BME280;21130;51.728;8.748;2024-03-06T03:01:30;100728.53;;;5.16;100.00
34925;BME280;21130;51.728;8.748;2024-03-06T03:03:57;100722.59;;;5.13;100.00
34925;BME280;21130;51.728;8.748;2024-03-06T03:06:23;100733.59;;;5.13;100.00
34925;BME280;21130;51.728;8.748;2024-03-06T03:08:50;100729.19;;;5.18;100.00
34925;BME280;21130;51.728;8.748;2024-03-06T03:11:16;100725.34;;;5.13;100.00
34925;BME280;21130;51.728;8.748;2024-03-06T03:13:44;100722.41;;;5.14;100.00
34925;BME280;21130;51.728;8.748;2024-03-06T03:16:15;100720.91;;;5.12;100.00
34925;BME280;21130;51.728;8.748;2024-03-06T03:18:42;100728.50;;;5.10;100.00
34925;BME280;21130;51.728;8.748;2024-03-06T03:21:10;100731.69;;;5.07;100.00
34925;BME280;21130;51.728;8.748;2024-03-06T03:23:37;100734.81;;;5.04;100.00
34925;BME280;21130;51.728;8.748;2024-03-06T03:26:04;100735.94;;;5.16;100.00
34925;BME280;21130;51.728;8.748;2024-03-06T03:28:30;100738.56;;;5.31;100.00
34925;BME280;21130;51.728;8.748;2024-03-06T03:30:59;100741.53;;;5.29;100.00
34925;BME280;21130;51.728;8.748;2024-03-06T03:33:25;100749.94;;;5.21;100.00
34925;BME280;21130;51.728;8.748;2024-03-06T03:35:51;100745.72;;;5.25;100.00
34925;BME280;21130;51.728;8.748;2024-03-06T03:38:18;100754.03;;;5.32;100.00
34925;BME280;21130;51.728;8.748;2024-03-06T03:40:44;100748.25;;;5.20;100.00
34925;BME280;21130;51.728;8.748;2024-03-06T03:43:11;100753.09;;;5.18;100.00
34925;BME280;21130;51.728;8.748;2024-03-06T03:45:37;100751.19;;;5.18;100.00
34925;BME280;21130;51.728;8.748;2024-03-06T03:48:05;100744.84;;;5.18;100.00
34925;BME280;21130;51.728;8.748;2024-03-06T03:50:32;100756.94;;;5.24;100.00
34925;BME280;21130;51.728;8.748;2024-03-06T03:52:58;100754.41;;;5.22;100.00
34925;BME280;21130;51.728;8.748;2024-03-06T03:55:26;100747.00;;;5.23;100.00
34925;BME280;21130;51.728;8.748;2024-03-06T03:57:52;100752.69;;;5.21;100.00
34925;BME280;21130;51.728;8.748;2024-03-06T04:00:19;100747.34;;;5.13;100.00
34925;BME280;21130;51.728;8.748;2024-03-06T04:02:48;100757.28;;;5.14;100.00
34925;BME280;21130;51.728;8.748;2024-03-06T04:05:15;100752.81;;;5.06;100.00
34925;BME280;21130;51.728;8.748;2024-03-06T04:07:43;100759.56;;;5.04;100.00
34925;BME280;21130;51.728;8.748;2024-03-06T04:10:10;100763.78;;;5.00;100.00
34925;BME280;21130;51.728;8.748;2024-03-06T04:12:37;100762.53;;;5.02;100.00
34925;BME280;21130;51.728;8.748;2024-03-06T04:15:05;100762.72;;;5.01;100.00
34925;BME280;21130;51.728;8.748;2024-03-06T04:17:31;100775.47;;;5.08;100.00
34925;BME280;21130;51.728;8.748;2024-03-06T04:19:58;100764.69;;;5.07;100.00
34925;BME280;21130;51.728;8.748;2024-03-06T04:22:26;100766.63;;;5.13;100.00
34925;BME280;21130;51.728;8.748;2024-03-06T04:24:54;100773.56;;;5.09;100.00
34925;BME280;21130;51.728;8.748;2024-03-06T04:27:23;100774.03;;;5.12;100.00
34925;BME280;21130;51.728;8.748;2024-03-06T04:29:50;100776.56;;;5.14;100.00
34925;BME280;21130;51.728;8.748;2024-03-06T04:32:16;100771.03;;;5.07;100.00
34925;BME280;21130;51.728;8.748;2024-03-06T04:34:42;100777.13;;;5.03;100.00
34925;BME280;21130;51.728;8.748;2024-03-06T04:37:09;100785.56;;;5.01;100.00
34925;BME280;21130;51.728;8.748;2024-03-06T04:39:37;100781.97;;;5.01;100.00
34925;BME280;21130;51.728;8.748;2024-03-06T04:42:04;100791.09;;;5.01;100.00
34925;BME280;21130;51.728;8.748;2024-03-06T04:44:33;100790.88;;;5.03;100.00
34925;BME280;21130;51.728;8.748;2024-03-06T04:46:59;100798.06;;;5.04;100.00
34925;BME280;21130;51.728;8.748;2024-03-06T04:49:26;100799.78;;;5.05;100.00
34925;BME280;21130;51.728;8.748;2024-03-06T04:51:52;100800.81;;;5.04;100.00
34925;BME280;21130;51.728;8.748;2024-03-06T04:54:19;100808.47;;;5.02;100.00
34925;BME280;21130;51.728;8.748;2024-03-06T04:56:46;100808.06;;;5.05;100.00
34925;BME280;21130;51.728;8.748;2024-03-06T04:59:13;100802.75;;;5.03;100.00
34925;BME280;21130;51.728;8.748;2024-03-06T05:01:39;100814.59;;;5.04;100.00
34925;BME280;21130;51.728;8.748;2024-03-06T05:04:06;100819.47;;;5.02;100.00
34925;BME280;21130;51.728;8.748;2024-03-06T05:06:32;100809.31;;;5.02;100.00
34925;BME280;21130;51.728;8.748;2024-03-06T05:09:00;100820.97;;;5.04;100.00
34925;BME280;21130;51.728;8.748;2024-03-06T05:11:27;100815.47;;;5.04;100.00
34925;BME280;21130;51.728;8.748;2024-03-06T05:13:57;100825.22;;;5.07;100.00
34925;BME280;21130;51.728;8.748;2024-03-06T05:16:24;100833.25;;;5.08;100.00
34925;BME280;21130;51.728;8.748;2024-03-06T05:18:51;100827.75;;;5.08;100.00
34925;BME280;21130;51.728;8.748;2024-03-06T05:21:18;100831.75;;;5.06;100.00
34925;BME280;21130;51.728;8.748;2024-03-06T05:23:44;100831.56;;;5.07;100.00
34925;BME280;21130;51.728;8.748;2024-03-06T05:26:11;100837.25;;;5.06;100.00
34925;BME280;21130;51.728;8.748;2024-03-06T05:28:38;100840.84;;;5.06;100.00
34925;BME280;21130;51.728;8.748;2024-03-06T05:31:16;100850.59;;;5.09;100.00
34925;BME280;21130;51.728;8.748;2024-03-06T05:33:44;100850.66;;;5.15;100.00
34925;BME280;21130;51.728;8.748;2024-03-06T05:36:10;100846.81;;;5.10;100.00
34925;BME280;21130;51.728;8.748;2024-03-06T05:38:38;100847.47;;;5.12;100.00
34925;BME280;21130;51.728;8.748;2024-03-06T05:41:04;100857.00;;;5.16;100.00
34925;BME280;21130;51.728;8.748;2024-03-06T05:43:32;100858.06;;;5.15;100.00
34925;BME280;21130;51.728;8.748;2024-03-06T05:45:58;100853.22;;;5.17;100.00
34925;BME280;21130;51.728;8.748;2024-03-06T05:48:27;100859.16;;;5.20;100.00
34925;BME280;21130;51.728;8.748;2024-03-06T05:50:53;100853.25;;;5.24;100.00
34925;BME280;21130;51.728;8.748;2024-03-06T05:53:20;100866.34;;;5.22;100.00
34925;BME280;21130;51.728;8.748;2024-03-06T05:55:46;100861.97;;;5.27;100.00
34925;BME280;21130;51.728;8.748;2024-03-06T05:58:12;100870.00;;;5.29;100.00
34925;BME280;21130;51.728;8.748;2024-03-06T06:00:39;100872.16;;;5.33;100.00
34925;BME280;21130;51.728;8.748;2024-03-06T06:03:05;100865.75;;;5.26;100.00
34925;BME280;21130;51.728;8.748;2024-03-06T06:05:44;100868.31;;;5.28;100.00
34925;BME280;21130;51.728;8.748;2024-03-06T06:08:11;100877.63;;;5.27;100.00
34925;BME280;21130;51.728;8.748;2024-03-06T06:10:38;100878.56;;;5.40;100.00
34925;BME280;21130;51.728;8.748;2024-03-06T06:13:04;100876.22;;;5.37;100.00
34925;BME280;21130;51.728;8.748;2024-03-06T06:15:31;100880.22;;;5.35;100.00
34925;BME280;21130;51.728;8.748;2024-03-06T06:17:57;100884.47;;;5.37;100.00
34925;BME280;21130;51.728;8.748;2024-03-06T06:20:23;100890.56;;;5.33;100.00
34925;BME280;21130;51.728;8.748;2024-03-06T06:22:51;100894.38;;;5.32;100.00
34925;BME280;21130;51.728;8.748;2024-03-06T06:25:18;100897.31;;;5.30;100.00
34925;BME280;21130;51.728;8.748;2024-03-06T06:27:44;100900.72;;;5.32;100.00
34925;BME280;21130;51.728;8.748;2024-03-06T06:30:12;100911.75;;;5.32;100.00
34925;BME280;21130;51.728;8.748;2024-03-06T06:32:38;100911.53;;;5.34;100.00
34925;BME280;21130;51.728;8.748;2024-03-06T06:35:06;100907.09;;;5.33;100.00
34925;BME280;21130;51.728;8.748;2024-03-06T06:37:32;100913.03;;;5.36;100.00
34925;BME280;21130;51.728;8.748;2024-03-06T06:40:00;100912.28;;;5.49;100.00
34925;BME280;21130;51.728;8.748;2024-03-06T06:42:31;100910.75;;;5.47;100.00
34925;BME280;21130;51.728;8.748;2024-03-06T06:44:58;100910.31;;;5.43;100.00
34925;BME280;21130;51.728;8.748;2024-03-06T06:47:25;100921.16;;;5.45;100.00
34925;BME280;21130;51.728;8.748;2024-03-06T06:49:52;100923.03;;;5.44;100.00
34925;BME280;21130;51.728;8.748;2024-03-06T06:52:19;100927.75;;;5.50;100.00
34925;BME280;21130;51.728;8.748;2024-03-06T06:54:46;100939.66;;;5.57;100.00
34925;BME280;21130;51.728;8.748;2024-03-06T06:57:14;100942.84;;;5.61;100.00
34925;BME280;21130;51.728;8.748;2024-03-06T06:59:40;100943.69;;;5.61;100.00
34925;BME280;21130;51.728;8.748;2024-03-06T07:02:07;100947.16;;;5.70;100.00
34925;BME280;21130;51.728;8.748;2024-03-06T07:04:33;100948.84;;;5.71;100.00
34925;BME280;21130;51.728;8.748;2024-03-06T07:06:59;100951.81;;;5.70;100.00
34925;BME280;21130;51.728;8.748;2024-03-06T07:09:26;100954.75;;;5.68;100.00
34925;BME280;21130;51.728;8.748;2024-03-06T07:11:54;100958.16;;;5.70;100.00
34925;BME280;21130;51.728;8.748;2024-03-06T07:14:22;100958.59;;;5.74;100.00
34925;BME280;21130;51.728;8.748;2024-03-06T07:16:48;100959.06;;;5.77;100.00
34925;BME280;21130;51.728;8.748;2024-03-06T07:19:15;100964.56;;;5.77;100.00
34925;BME280;21130;51.728;8.748;2024-03-06T07:21:42;100972.66;;;5.85;100.00
34925;BME280;21130;51.728;8.748;2024-03-06T07:24:08;100972.72;;;5.92;100.00
34925;BME280;21130;51.728;8.748;2024-03-06T07:26:35;100972.00;;;5.83;100.00
34925;BME280;21130;51.728;8.748;2024-03-06T07:29:02;100970.09;;;5.84;100.00
34925;BME280;21130;51.728;8.748;2024-03-06T07:31:30;100982.44;;;5.88;100.00
34925;BME280;21130;51.728;8.748;2024-03-06T07:33:57;100977.34;;;5.92;100.00
34925;BME280;21130;51.728;8.748;2024-03-06T07:36:23;100981.50;;;6.02;100.00
34925;BME280;21130;51.728;8.748;2024-03-06T07:38:50;100985.28;;;6.01;100.00
34925;BME280;21130;51.728;8.748;2024-03-06T07:41:16;100995.06;;;6.04;100.00
34925;BME280;21130;51.728;8.748;2024-03-06T07:43:42;100989.16;;;6.14;100.00
34925;BME280;21130;51.728;8.748;2024-03-06T07:46:09;100998.69;;;6.11;100.00
34925;BME280;21130;51.728;8.748;2024-03-06T07:48:41;100995.94;;;6.11;100.00
34925;BME280;21130;51.728;8.748;2024-03-06T07:51:09;100999.16;;;6.15;100.00
34925;BME280;21130;51.728;8.748;2024-03-06T07:53:35;101001.28;;;6.19;100.00
34925;BME280;21130;51.728;8.748;2024-03-06T07:56:02;101006.41;;;6.29;100.00
34925;BME280;21130;51.728;8.748;2024-03-06T08:01:02;101010.06;;;6.30;100.00
34925;BME280;21130;51.728;8.748;2024-03-06T08:03:29;101006.41;;;6.29;100.00
34925;BME280;21130;51.728;8.748;2024-03-06T08:05:57;101016.81;;;6.27;100.00
34925;BME280;21130;51.728;8.748;2024-03-06T08:08:23;101020.63;;;6.26;100.00
34925;BME280;21130;51.728;8.748;2024-03-06T08:10:50;101016.56;;;6.22;100.00
34925;BME280;21130;51.728;8.748;2024-03-06T08:13:16;101020.84;;;6.24;100.00
34925;BME280;21130;51.728;8.748;2024-03-06T08:15:44;101025.47;;;6.24;100.00
34925;BME280;21130;51.728;8.748;2024-03-06T08:18:11;101026.34;;;6.24;100.00
34925;BME280;21130;51.728;8.748;2024-03-06T08:20:38;101030.38;;;6.28;100.00
34925;BME280;21130;51.728;8.748;2024-03-06T08:23:07;101036.97;;;6.34;100.00
34925;BME280;21130;51.728;8.748;2024-03-06T08:25:36;101034.88;;;6.36;100.00
34925;BME280;21130;51.728;8.748;2024-03-06T08:28:03;101047.03;;;6.48;100.00
34925;BME280;21130;51.728;8.748;2024-03-06T08:30:30;101051.53;;;6.56;100.00
34925;BME280;21130;51.728;8.748;2024-03-06T08:32:57;101051.53;;;6.56;100.00
34925;BME280;21130;51.728;8.748;2024-03-06T08:35:24;101050.72;;;6.62;100.00
34925;BME280;21130;51.728;8.748;2024-03-06T08:37:50;101048.56;;;6.58;100.00
34925;BME280;21130;51.728;8.748;2024-03-06T08:40:18;101051.75;;;6.55;100.00
34925;BME280;21130;51.728;8.748;2024-03-06T08:42:46;101061.47;;;6.51;100.00
34925;BME280;21130;51.728;8.748;2024-03-06T08:45:14;101062.06;;;6.46;100.00
34925;BME280;21130;51.728;8.748;2024-03-06T08:47:40;101060.09;;;6.33;100.00
34925;BME280;21130;51.728;8.748;2024-03-06T08:50:09;101059.66;;;6.30;100.00
34925;BME280;21130;51.728;8.748;2024-03-06T08:52:36;101068.38;;;6.33;100.00
34925;BME280;21130;51.728;8.748;2024-03-06T08:55:03;101068.31;;;6.26;100.00
34925;BME280;21130;51.728;8.748;2024-03-06T08:57:32;101070.47;;;6.24;100.00
34925;BME280;21130;51.728;8.748;2024-03-06T08:59:59;101067.94;;;6.30;100.00
34925;BME280;21130;51.728;8.748;2024-03-06T09:02:26;101071.78;;;6.35;100.00
34925;BME280;21130;51.728;8.748;2024-03-06T09:04:53;101071.78;;;6.35;100.00
34925;BME280;21130;51.728;8.748;2024-03-06T09:07:20;101074.53;;;6.35;100.00
34925;BME280;21130;51.728;8.748;2024-03-06T09:09:49;101077.53;;;6.40;100.00
34925;BME280;21130;51.728;8.748;2024-03-06T09:12:15;101077.81;;;6.52;100.00
34925;BME280;21130;51.728;8.748;2024-03-06T09:14:44;101077.81;;;6.52;100.00
34925;BME280;21130;51.728;8.748;2024-03-06T09:17:11;101087.59;;;6.55;100.00
34925;BME280;21130;51.728;8.748;2024-03-06T09:19:38;101079.72;;;6.52;100.00
34925;BME280;21130;51.728;8.748;2024-03-06T09:22:05;101086.34;;;6.57;100.00
34925;BME280;21130;51.728;8.748;2024-03-06T09:24:31;101091.06;;;6.70;100.00
34925;BME280;21130;51.728;8.748;2024-03-06T09:26:58;101088.91;;;6.72;100.00
34925;BME280;21130;51.728;8.748;2024-03-06T09:29:24;101085.34;;;6.78;100.00
34925;BME280;21130;51.728;8.748;2024-03-06T09:31:52;101091.16;;;6.90;100.00
34925;BME280;21130;51.728;8.748;2024-03-06T09:34:19;101095.41;;;6.99;100.00
34925;BME280;21130;51.728;8.748;2024-03-06T09:36:47;101083.56;;;7.12;100.00
34925;BME280;21130;51.728;8.748;2024-03-06T09:39:15;101091.25;;;7.23;100.00
34925;BME280;21130;51.728;8.748;2024-03-06T09:41:42;101094.25;;;7.35;100.00
34925;BME280;21130;51.728;8.748;2024-03-06T09:44:10;101086.56;;;7.24;100.00
34925;BME280;21130;51.728;8.748;2024-03-06T09:46:36;101092.09;;;7.37;100.00
34925;BME280;21130;51.728;8.748;2024-03-06T09:49:05;101097.66;;;7.44;100.00
34925;BME280;21130;51.728;8.748;2024-03-06T09:51:34;101097.88;;;7.55;100.00
34925;BME280;21130;51.728;8.748;2024-03-06T09:54:01;101104.25;;;7.56;100.00
34925;BME280;21130;51.728;8.748;2024-03-06T09:56:28;101103.63;;;7.67;100.00
34925;BME280;21130;51.728;8.748;2024-03-06T09:58:54;101094.09;;;7.83;100.00
34925;BME280;21130;51.728;8.748;2024-03-06T10:01:22;101104.06;;;7.84;100.00
34925;BME280;21130;51.728;8.748;2024-03-06T10:03:50;101099.41;;;7.98;100.00
34925;BME280;21130;51.728;8.748;2024-03-06T10:06:18;101098.34;;;8.06;100.00
34925;BME280;21130;51.728;8.748;2024-03-06T10:08:45;101098.53;;;7.84;100.00
34925;BME280;21130;51.728;8.748;2024-03-06T10:11:12;101098.09;;;7.87;100.00
34925;BME280;21130;51.728;8.748;2024-03-06T10:13:39;101098.34;;;7.86;100.00
34925;BME280;21130;51.728;8.748;2024-03-06T10:16:06;101107.88;;;7.70;100.00
34925;BME280;21130;51.728;8.748;2024-03-06T10:18:35;101098.53;;;7.64;100.00
34925;BME280;21130;51.728;8.748;2024-03-06T10:21:04;101105.13;;;7.76;100.00
34925;BME280;21130;51.728;8.748;2024-03-06T10:23:32;101097.28;;;7.80;100.00
34925;BME280;21130;51.728;8.748;2024-03-06T10:25:59;101091.75;;;7.73;100.00
34925;BME280;21130;51.728;8.748;2024-03-06T10:28:26;101102.78;;;7.93;100.00
34925;BME280;21130;51.728;8.748;2024-03-06T10:31:03;101103.84;;;8.12;100.00
34925;BME280;21130;51.728;8.748;2024-03-06T10:33:31;101113.19;;;8.25;100.00
34925;BME280;21130;51.728;8.748;2024-03-06T10:45:23;101113.78;;;8.60;100.00
34925;BME280;21130;51.728;8.748;2024-03-06T10:47:55;101105.47;;;8.73;100.00
34925;BME280;21130;51.728;8.748;2024-03-06T10:50:21;101096.69;;;8.83;100.00
34925;BME280;21130;51.728;8.748;2024-03-06T10:52:53;101100.88;;;8.99;100.00
34925;BME280;21130;51.728;8.748;2024-03-06T10:55:21;101110.19;;;9.11;100.00
34925;BME280;21130;51.728;8.748;2024-03-06T10:57:50;101101.50;;;9.01;100.00
34925;BME280;21130;51.728;8.748;2024-03-06T11:00:19;101109.00;;;8.87;100.00
34925;BME280;21130;51.728;8.748;2024-03-06T11:02:47;101109.00;;;8.94;100.00
34925;BME280;21130;51.728;8.748;2024-03-06T11:05:17;101112.03;;;8.85;100.00
34925;BME280;21130;51.728;8.748;2024-03-06T11:07:43;101111.78;;;8.87;100.00
34925;BME280;21130;51.728;8.748;2024-03-06T11:10:10;101116.34;;;8.68;100.00
34925;BME280;21130;51.728;8.748;2024-03-06T11:12:42;101123.97;;;8.73;100.00
34925;BME280;21130;51.728;8.748;2024-03-06T11:15:13;101122.00;;;8.86;100.00
34925;BME280;21130;51.728;8.748;2024-03-06T11:17:40;101118.59;;;8.91;100.00
34925;BME280;21130;51.728;8.748;2024-03-06T11:20:17;101122.03;;;9.25;100.00
34925;BME280;21130;51.728;8.748;2024-03-06T11:23:02;101123.97;;;9.24;100.00
34925;BME280;21130;51.728;8.748;2024-03-06T11:26:00;101121.00;;;9.26;100.00
34925;BME280;21130;51.728;8.748;2024-03-06T11:28:29;101127.25;;;9.46;100.00
34925;BME280;21130;51.728;8.748;2024-03-06T11:30:57;101128.63;;;9.62;100.00
34925;BME280;21130;51.728;8.748;2024-03-06T11:33:26;101118.47;;;9.56;100.00
34925;BME280;21130;51.728;8.748;2024-03-06T11:36:15;101122.56;;;9.79;100.00
34925;BME280;21130;51.728;8.748;2024-03-06T11:38:43;101125.22;;;9.92;100.00
34925;BME280;21130;51.728;8.748;2024-03-06T11:41:12;101119.97;;;10.09;100.00
34925;BME280;21130;51.728;8.748;2024-03-06T11:43:43;101122.91;;;10.14;100.00
34925;BME280;21130;51.728;8.748;2024-03-06T11:46:11;101112.97;;;10.31;100.00
34925;BME280;21130;51.728;8.748;2024-03-06T11:48:38;101122.25;;;10.19;100.00
34925;BME280;21130;51.728;8.748;2024-03-06T11:51:05;101123.81;;;10.33;100.00
34925;BME280;21130;51.728;8.748;2024-03-06T11:53:34;101121.94;;;10.27;100.00
34925;BME280;21130;51.728;8.748;2024-03-06T11:56:02;101123.31;;;10.17;100.00
34925;BME280;21130;51.728;8.748;2024-03-06T11:58:32;101123.53;;;10.16;100.00
34925;BME280;21130;51.728;8.748;2024-03-06T12:00:59;101123.72;;;10.21;100.00
34925;BME280;21130;51.728;8.748;2024-03-06T12:03:26;101126.59;;;10.08;100.00
34925;BME280;21130;51.728;8.748;2024-03-06T12:05:53;101133.72;;;9.97;100.00
34925;BME280;21130;51.728;8.748;2024-03-06T12:08:19;101141.72;;;9.80;100.00
34925;BME280;21130;51.728;8.748;2024-03-06T12:10:47;101134.13;;;9.76;100.00
34925;BME280;21130;51.728;8.748;2024-03-06T12:13:14;101133.91;;;9.70;100.00
34925;BME280;21130;51.728;8.748;2024-03-06T12:15:42;101140.09;;;9.72;100.00
34925;BME280;21130;51.728;8.748;2024-03-06T12:18:10;101139.19;;;9.47;100.00
34925;BME280;21130;51.728;8.748;2024-03-06T12:20:40;101141.66;;;9.62;100.00
34925;BME280;21130;51.728;8.748;2024-03-06T12:23:19;101137.19;;;9.61;100.00
34925;BME280;21130;51.728;8.748;2024-03-06T12:25:47;101140.28;;;9.39;100.00
34925;BME280;21130;51.728;8.748;2024-03-06T12:28:14;101142.44;;;9.37;100.00
34925;BME280;21130;51.728;8.748;2024-03-06T12:30:42;101145.47;;;9.29;100.00
34925;BME280;21130;51.728;8.748;2024-03-06T12:33:09;101145.47;;;9.29;100.00
34925;BME280;21130;51.728;8.748;2024-03-06T12:35:40;101147.22;;;9.23;100.00
34925;BME280;21130;51.728;8.748;2024-03-06T12:38:11;101149.53;;;9.20;100.00
34925;BME280;21130;51.728;8.748;2024-03-06T12:40:38;101145.03;;;9.32;100.00
34925;BME280;21130;51.728;8.748;2024-03-06T12:43:07;101145.06;;;9.25;100.00
34925;BME280;21130;51.728;8.748;2024-03-06T12:45:36;101144.34;;;9.37;100.00
34925;BME280;21130;51.728;8.748;2024-03-06T12:48:03;101144.00;;;9.20;100.00
34925;BME280;21130;51.728;8.748;2024-03-06T12:50:31;101146.94;;;9.32;100.00
34925;BME280;21130;51.728;8.748;2024-03-06T12:52:58;101141.00;;;9.28;100.00
34925;BME280;21130;51.728;8.748;2024-03-06T12:55:24;101147.22;;;9.23;100.00
34925;BME280;21130;51.728;8.748;2024-03-06T12:57:51;101145.34;;;9.11;100.00
34925;BME280;21130;51.728;8.748;2024-03-06T13:00:19;101139.56;;;9.12;100.00
34925;BME280;21130;51.728;8.748;2024-03-06T13:02:46;101139.75;;;9.17;100.00
34925;BME280;21130;51.728;8.748;2024-03-06T13:05:12;101145.31;;;9.17;100.00